PRIVATE WETTERSTATION BILLIGHEIM-ALLFELD                       ZURCK
Wetterdaten: Donnerstag, 30.06.2016
Datum Zeit Temp. A. Temp. A. min Temp. A. max Feuchte A. Luftdruck Regen Wind Richtung Richtung Sonnenschein ET Solar Taupunkt Windchill Windben Empfang
30.06.2016 00:00 15,8 C 15,8 C 15,9 C 87 % 1012,5 hPa 0,0 l/m 0,0 km/h (0 Bft) N 0 0 min 0,000 mm 0 W/m 13,6 C 15,8 C 0,0 km/h (0 Bft) 100 %
30.06.2016 00:10 15,7 C 15,7 C 15,8 C 88 % 1012,4 hPa 0,0 l/m 0,0 km/h (0 Bft) N 0 0 min 0,000 mm 0 W/m 13,7 C 15,7 C 0,0 km/h (0 Bft) 100 %
30.06.2016 00:20 15,7 C 15,7 C 15,8 C 88 % 1012,4 hPa 0,0 l/m 0,0 km/h (0 Bft) N 0 0 min 0,000 mm 0 W/m 13,7 C 15,7 C 0,0 km/h (0 Bft) 100 %
30.06.2016 00:30 15,6 C 15,6 C 15,7 C 89 % 1012,3 hPa 0,0 l/m 0,0 km/h (0 Bft) N 0 0 min 0,000 mm 0 W/m 13,8 C 15,6 C 0,0 km/h (0 Bft) 100 %
30.06.2016 00:40 15,5 C 15,5 C 15,6 C 89 % 1012,1 hPa 0,0 l/m 0,0 km/h (0 Bft) N 0 0 min 0,000 mm 0 W/m 13,7 C 15,5 C 0,0 km/h (0 Bft) 99 %
30.06.2016 00:50 15,4 C 15,4 C 15,5 C 89 % 1012,2 hPa 0,0 l/m 0,0 km/h (0 Bft) S-SW 202 0 min 0,000 mm 0 W/m 13,6 C 15,4 C 1,6 km/h (1 Bft) 100 %
30.06.2016 01:00 15,4 C 15,3 C 15,4 C 89 % 1012,1 hPa 0,0 l/m 0,0 km/h (0 Bft) N 0 0 min 0,000 mm 0 W/m 13,6 C 15,4 C 0,0 km/h (0 Bft) 100 %
30.06.2016 01:10 15,4 C 15,4 C 15,4 C 89 % 1012,1 hPa 0,0 l/m 0,0 km/h (0 Bft) N 0 0 min 0,000 mm 0 W/m 13,6 C 15,4 C 0,0 km/h (0 Bft) 100 %
30.06.2016 01:20 15,3 C 15,3 C 15,4 C 89 % 1012,2 hPa 0,0 l/m 0,0 km/h (0 Bft) N 0 0 min 0,000 mm 0 W/m 13,5 C 15,3 C 0,0 km/h (0 Bft) 100 %
30.06.2016 01:30 15,2 C 15,2 C 15,3 C 89 % 1012,2 hPa 0,0 l/m 0,0 km/h (0 Bft) N 0 0 min 0,000 mm 0 W/m 13,4 C 15,2 C 0,0 km/h (0 Bft) 100 %
30.06.2016 01:40 15,1 C 15,1 C 15,2 C 89 % 1012,0 hPa 0,0 l/m 0,0 km/h (0 Bft) N 0 0 min 0,000 mm 0 W/m 13,3 C 15,1 C 0,0 km/h (0 Bft) 100 %
30.06.2016 01:50 15,1 C 15,1 C 15,1 C 89 % 1012,0 hPa 0,0 l/m 0,0 km/h (0 Bft) N 0 0 min 0,000 mm 0 W/m 13,3 C 15,1 C 0,0 km/h (0 Bft) 99 %
30.06.2016 02:00 14,9 C 14,9 C 15,1 C 90 % 1012,0 hPa 0,0 l/m 0,0 km/h (0 Bft) N 0 0 min 0,000 mm 0 W/m 13,3 C 14,9 C 0,0 km/h (0 Bft) 100 %
30.06.2016 02:10 14,8 C 14,8 C 14,9 C 90 % 1012,0 hPa 0,0 l/m 0,0 km/h (0 Bft) N 0 0 min 0,000 mm 0 W/m 13,2 C 14,8 C 0,0 km/h (0 Bft) 100 %
30.06.2016 02:20 14,6 C 14,6 C 14,8 C 90 % 1012,0 hPa 0,0 l/m 0,0 km/h (0 Bft) N 0 0 min 0,000 mm 0 W/m 13,0 C 14,6 C 0,0 km/h (0 Bft) 100 %
30.06.2016 02:30 14,3 C 14,3 C 14,6 C 90 % 1012,1 hPa 0,0 l/m 0,0 km/h (0 Bft) S-SW 202 0 min 0,000 mm 0 W/m 12,7 C 14,3 C 3,2 km/h (1 Bft) 100 %
30.06.2016 02:40 14,2 C 14,1 C 14,3 C 90 % 1012,0 hPa 0,0 l/m 0,0 km/h (0 Bft) N 0 0 min 0,000 mm 0 W/m 12,6 C 14,2 C 0,0 km/h (0 Bft) 100 %
30.06.2016 02:50 14,1 C 14,1 C 14,1 C 90 % 1011,9 hPa 0,0 l/m 0,0 km/h (0 Bft) N 0 0 min 0,000 mm 0 W/m 12,5 C 14,1 C 0,0 km/h (0 Bft) 100 %
30.06.2016 03:00 14,0 C 13,9 C 14,1 C 90 % 1011,9 hPa 0,0 l/m 0,0 km/h (0 Bft) N 0 0 min 0,000 mm 0 W/m 12,4 C 14,0 C 0,0 km/h (0 Bft) 100 %
30.06.2016 03:10 13,9 C 13,9 C 14,0 C 90 % 1011,8 hPa 0,0 l/m 0,0 km/h (0 Bft) N 0 0 min 0,000 mm 0 W/m 12,3 C 13,9 C 0,0 km/h (0 Bft) 100 %
30.06.2016 03:20 13,9 C 13,9 C 13,9 C 90 % 1011,5 hPa 0,0 l/m 0,0 km/h (0 Bft) N 0 0 min 0,000 mm 0 W/m 12,3 C 13,9 C 0,0 km/h (0 Bft) 100 %
30.06.2016 03:30 13,8 C 13,8 C 13,9 C 90 % 1011,8 hPa 0,0 l/m 0,0 km/h (0 Bft) N 0 0 min 0,000 mm 0 W/m 12,2 C 13,8 C 0,0 km/h (0 Bft) 100 %
30.06.2016 03:40 13,6 C 13,6 C 13,8 C 90 % 1011,9 hPa 0,0 l/m 0,0 km/h (0 Bft) N 0 0 min 0,000 mm 0 W/m 12,0 C 13,6 C 0,0 km/h (0 Bft) 99 %
30.06.2016 03:50 13,7 C 13,6 C 13,7 C 90 % 1012,1 hPa 0,0 l/m 0,0 km/h (0 Bft) N 0 0 min 0,000 mm 0 W/m 12,1 C 13,7 C 0,0 km/h (0 Bft) 100 %
30.06.2016 04:00 13,9 C 13,7 C 13,9 C 90 % 1012,0 hPa 0,0 l/m 0,0 km/h (0 Bft) S-SW 202 0 min 0,000 mm 0 W/m 12,3 C 13,9 C 1,6 km/h (1 Bft) 100 %
30.06.2016 04:10 14,1 C 13,9 C 14,1 C 90 % 1012,0 hPa 0,0 l/m 0,0 km/h (0 Bft) N 0 0 min 0,000 mm 0 W/m 12,5 C 14,1 C 0,0 km/h (0 Bft) 100 %
30.06.2016 04:20 14,1 C 14,1 C 14,1 C 90 % 1012,1 hPa 0,0 l/m 0,0 km/h (0 Bft) N 0 0 min 0,000 mm 0 W/m 12,5 C 14,1 C 0,0 km/h (0 Bft) 100 %
30.06.2016 04:30 14,1 C 14,1 C 14,1 C 90 % 1012,3 hPa 0,0 l/m 0,0 km/h (0 Bft) N 0 0 min 0,000 mm 0 W/m 12,5 C 14,1 C 0,0 km/h (0 Bft) 100 %
30.06.2016 04:40 14,1 C 14,1 C 14,1 C 91 % 1012,2 hPa 0,0 l/m 0,0 km/h (0 Bft) N 0 0 min 0,000 mm 0 W/m 12,7 C 14,1 C 0,0 km/h (0 Bft) 100 %
30.06.2016 04:50 14,2 C 14,1 C 14,2 C 91 % 1012,3 hPa 0,0 l/m 0,0 km/h (0 Bft) N 0 0 min 0,000 mm 0 W/m 12,8 C 14,2 C 0,0 km/h (0 Bft) 100 %
30.06.2016 05:00 14,2 C 14,2 C 14,2 C 91 % 1012,3 hPa 0,0 l/m 0,0 km/h (0 Bft) N 0 0 min 0,000 mm 0 W/m 12,8 C 14,2 C 0,0 km/h (0 Bft) 100 %
30.06.2016 05:10 14,3 C 14,2 C 14,3 C 91 % 1012,3 hPa 0,0 l/m 0,0 km/h (0 Bft) N 0 0 min 0,000 mm 0 W/m 12,8 C 14,3 C 0,0 km/h (0 Bft) 100 %
30.06.2016 05:20 14,3 C 14,3 C 14,3 C 91 % 1012,4 hPa 0,0 l/m 0,0 km/h (0 Bft) N 0 0 min 0,000 mm 0 W/m 12,8 C 14,3 C 0,0 km/h (0 Bft) 100 %
30.06.2016 05:30 14,4 C 14,3 C 14,4 C 91 % 1012,6 hPa 0,0 l/m 0,0 km/h (0 Bft) N 0 0 min 0,000 mm 0 W/m 12,9 C 14,4 C 0,0 km/h (0 Bft) 100 %
30.06.2016 05:40 14,4 C 14,4 C 14,5 C 91 % 1012,7 hPa 0,0 l/m 0,0 km/h (0 Bft) N 0 0 min 0,000 mm 0 W/m 12,9 C 14,4 C 0,0 km/h (0 Bft) 100 %
30.06.2016 05:50 14,5 C 14,4 C 14,5 C 91 % 1012,7 hPa 0,0 l/m 0,0 km/h (0 Bft) N 0 0 min 0,000 mm 5 W/m 13,0 C 14,5 C 0,0 km/h (0 Bft) 100 %
30.06.2016 06:00 14,5 C 14,5 C 14,5 C 91 % 1012,8 hPa 0,0 l/m 0,0 km/h (0 Bft) N 0 0 min 0,000 mm 12 W/m 13,0 C 14,5 C 0,0 km/h (0 Bft) 100 %
30.06.2016 06:10 14,6 C 14,5 C 14,6 C 91 % 1012,9 hPa 0,0 l/m 0,0 km/h (0 Bft) N 0 0 min 0,000 mm 12 W/m 13,1 C 14,6 C 0,0 km/h (0 Bft) 100 %
30.06.2016 06:20 14,9 C 14,6 C 14,9 C 91 % 1013,0 hPa 0,0 l/m 0,0 km/h (0 Bft) SW 225 0 min 0,000 mm 18 W/m 13,4 C 14,9 C 3,2 km/h (1 Bft) 99 %
30.06.2016 06:30 15,1 C 14,9 C 15,1 C 91 % 1013,0 hPa 0,0 l/m 3,2 km/h (1 Bft) S-SW 202 0 min 0,000 mm 18 W/m 13,6 C 15,1 C 4,8 km/h (1 Bft) 100 %
30.06.2016 06:40 15,1 C 15,1 C 15,1 C 90 % 1013,1 hPa 0,0 l/m 1,6 km/h (1 Bft) S-SW 202 0 min 0,000 mm 21 W/m 13,5 C 15,1 C 4,8 km/h (1 Bft) 100 %
30.06.2016 06:50 15,3 C 15,1 C 15,3 C 90 % 1013,1 hPa 0,0 l/m 0,0 km/h (0 Bft) N 0 0 min 0,000 mm 21 W/m 13,7 C 15,3 C 0,0 km/h (0 Bft) 100 %
30.06.2016 07:00 15,3 C 15,2 C 15,3 C 90 % 1013,2 hPa 0,0 l/m 0,0 km/h (0 Bft) S-SW 202 0 min 0,000 mm 54 W/m 13,7 C 15,3 C 1,6 km/h (1 Bft) 100 %
30.06.2016 07:10 15,4 C 15,3 C 15,4 C 90 % 1013,3 hPa 0,0 l/m 1,6 km/h (1 Bft) S-SW 202 0 min 0,000 mm 60 W/m 13,8 C 15,4 C 6,4 km/h (2 Bft) 100 %
30.06.2016 07:20 15,6 C 15,4 C 15,6 C 90 % 1013,3 hPa 0,0 l/m 4,8 km/h (1 Bft) S-SO 157 0 min 0,000 mm 56 W/m 14,0 C 15,6 C 8,0 km/h (2 Bft) 100 %
30.06.2016 07:30 15,7 C 15,6 C 15,7 C 90 % 1013,3 hPa 0,0 l/m 1,6 km/h (1 Bft) S-SO 157 0 min 0,000 mm 46 W/m 14,1 C 15,7 C 9,7 km/h (2 Bft) 99 %
30.06.2016 07:40 15,7 C 15,7 C 15,7 C 90 % 1013,4 hPa 0,0 l/m 4,8 km/h (1 Bft) S-SO 157 0 min 0,000 mm 56 W/m 14,1 C 15,7 C 8,0 km/h (2 Bft) 100 %
30.06.2016 07:50 15,8 C 15,7 C 15,8 C 90 % 1013,5 hPa 0,0 l/m 3,2 km/h (1 Bft) S-SO 157 0 min 0,000 mm 77 W/m 14,2 C 15,8 C 6,4 km/h (2 Bft) 100 %
30.06.2016 08:00 16,0 C 15,8 C 16,0 C 90 % 1013,3 hPa 0,0 l/m 3,2 km/h (1 Bft) S-SO 157 0 min 0,025 mm 111 W/m 14,4 C 16,0 C 8,0 km/h (2 Bft) 100 %
30.06.2016 08:10 16,3 C 16,0 C 16,3 C 90 % 1013,4 hPa 0,0 l/m 3,2 km/h (1 Bft) SO 135 0 min 0,000 mm 114 W/m 14,7 C 16,3 C 9,7 km/h (2 Bft) 100 %
30.06.2016 08:20 16,4 C 16,2 C 16,4 C 90 % 1013,4 hPa 0,0 l/m 3,2 km/h (1 Bft) SO 135 0 min 0,000 mm 121 W/m 14,8 C 16,4 C 8,0 km/h (2 Bft) 100 %
30.06.2016 08:30 16,6 C 16,4 C 16,6 C 90 % 1013,5 hPa 0,0 l/m 0,0 km/h (0 Bft) S-SO 157 0 min 0,000 mm 144 W/m 15,0 C 16,6 C 4,8 km/h (1 Bft) 100 %
30.06.2016 08:40 16,8 C 16,7 C 16,8 C 90 % 1013,5 hPa 0,0 l/m 0,0 km/h (0 Bft) S-SO 157 0 min 0,000 mm 144 W/m 15,1 C 16,8 C 1,6 km/h (1 Bft) 100 %
30.06.2016 08:50 16,9 C 16,8 C 16,9 C 90 % 1013,6 hPa 0,0 l/m 0,0 km/h (0 Bft) S-SO 157 0 min 0,000 mm 135 W/m 15,2 C 16,9 C 4,8 km/h (1 Bft) 100 %
30.06.2016 09:00 17,1 C 16,9 C 17,1 C 90 % 1013,8 hPa 0,0 l/m 3,2 km/h (1 Bft) S 180 10 min 0,076 mm 186 W/m 15,4 C 17,1 C 9,7 km/h (2 Bft) 100 %
30.06.2016 09:10 17,3 C 17,1 C 17,3 C 90 % 1014,0 hPa 0,0 l/m 4,8 km/h (1 Bft) S 180 10 min 0,000 mm 239 W/m 15,6 C 17,3 C 9,7 km/h (2 Bft) 90 %
30.06.2016 09:20 17,6 C 17,3 C 17,6 C 90 % 1013,9 hPa 0,0 l/m 4,8 km/h (1 Bft) S 180 10 min 0,000 mm 279 W/m 15,9 C 17,6 C 9,7 km/h (2 Bft) 100 %
30.06.2016 09:30 17,8 C 17,6 C 17,8 C 89 % 1014,0 hPa 0,0 l/m 3,2 km/h (1 Bft) S 180 10 min 0,000 mm 223 W/m 16,0 C 17,8 C 9,7 km/h (2 Bft) 100 %
30.06.2016 09:40 18,0 C 17,8 C 18,0 C 89 % 1014,1 hPa 0,0 l/m 4,8 km/h (1 Bft) S-SW 202 10 min 0,000 mm 176 W/m 16,2 C 18,0 C 12,9 km/h (3 Bft) 100 %
30.06.2016 09:50 18,2 C 18,0 C 18,2 C 89 % 1014,2 hPa 0,0 l/m 4,8 km/h (1 Bft) S-SW 202 0 min 0,000 mm 146 W/m 16,4 C 18,2 C 16,1 km/h (3 Bft) 100 %
30.06.2016 10:00 18,4 C 18,2 C 18,4 C 89 % 1014,1 hPa 0,0 l/m 3,2 km/h (1 Bft) S-SW 202 10 min 0,102 mm 262 W/m 16,6 C 18,4 C 9,7 km/h (2 Bft) 100 %
30.06.2016 10:10 18,8 C 18,4 C 18,8 C 88 % 1014,0 hPa 0,0 l/m 3,2 km/h (1 Bft) S 180 10 min 0,000 mm 274 W/m 16,8 C 18,8 C 11,3 km/h (2 Bft) 100 %
30.06.2016 10:20 19,0 C 18,8 C 19,0 C 86 % 1014,0 hPa 0,0 l/m 4,8 km/h (1 Bft) W-SW 247 10 min 0,000 mm 287 W/m 16,6 C 19,0 C 16,1 km/h (3 Bft) 100 %
30.06.2016 10:30 19,6 C 19,0 C 19,6 C 85 % 1014,0 hPa 0,0 l/m 8,0 km/h (2 Bft) S-SW 202 10 min 0,000 mm 772 W/m 17,0 C 18,9 C 17,7 km/h (3 Bft) 100 %
30.06.2016 10:40 20,7 C 19,6 C 20,7 C 79 % 1013,9 hPa 0,0 l/m 8,0 km/h (2 Bft) SW 225 10 min 0,000 mm 911 W/m 16,9 C 20,1 C 22,5 km/h (4 Bft) 100 %
30.06.2016 10:50 20,9 C 20,7 C 21,0 C 77 % 1013,9 hPa 0,0 l/m 8,0 km/h (2 Bft) S-SW 202 10 min 0,000 mm 631 W/m 16,7 C 20,3 C 20,9 km/h (4 Bft) 100 %
30.06.2016 11:00 20,5 C 20,5 C 20,9 C 77 % 1014,1 hPa 0,0 l/m 4,8 km/h (1 Bft) W-SW 247 0 min 0,229 mm 142 W/m 16,3 C 20,5 C 16,1 km/h (3 Bft) 100 %
30.06.2016 11:10 20,4 C 20,3 C 20,5 C 79 % 1014,0 hPa 0,0 l/m 3,2 km/h (1 Bft) W 270 10 min 0,000 mm 594 W/m 16,6 C 20,4 C 11,3 km/h (2 Bft) 100 %
30.06.2016 11:20 21,2 C 20,4 C 21,2 C 79 % 1014,0 hPa 0,0 l/m 4,8 km/h (1 Bft) S-SW 202 10 min 0,000 mm 1116 W/m 17,4 C 21,2 C 16,1 km/h (3 Bft) 100 %
30.06.2016 11:30 21,6 C 21,2 C 21,6 C 76 % 1014,0 hPa 0,0 l/m 3,2 km/h (1 Bft) S-SW 202 10 min 0,000 mm 355 W/m 17,2 C 21,6 C 14,5 km/h (3 Bft) 100 %
30.06.2016 11:40 22,0 C 21,6 C 22,0 C 73 % 1014,0 hPa 0,0 l/m 6,4 km/h (2 Bft) SW 225 10 min 0,000 mm 849 W/m 16,9 C 22,0 C 20,9 km/h (4 Bft) 100 %
30.06.2016 11:50 22,4 C 21,9 C 22,4 C 74 % 1014,0 hPa 0,0 l/m 6,4 km/h (2 Bft) SW 225 10 min 0,000 mm 958 W/m 17,5 C 22,4 C 24,1 km/h (4 Bft) 100 %
30.06.2016 12:00 22,8 C 22,5 C 22,8 C 72 % 1014,0 hPa 0,0 l/m 8,0 km/h (2 Bft) W-SW 247 10 min 0,381 mm 1132 W/m 17,5 C 22,3 C 19,3 km/h (3 Bft) 100 %
30.06.2016 12:10 22,1 C 22,1 C 22,8 C 70 % 1014,0 hPa 0,0 l/m 11,3 km/h (2 Bft) S-SW 202 10 min 0,000 mm 223 W/m 16,4 C 20,6 C 25,7 km/h (4 Bft) 100 %
30.06.2016 12:20 21,8 C 21,8 C 22,1 C 73 % 1014,1 hPa 0,0 l/m 9,7 km/h (2 Bft) S-SW 202 10 min 0,000 mm 1018 W/m 16,7 C 20,7 C 20,9 km/h (4 Bft) 100 %
30.06.2016 12:30 21,6 C 21,6 C 21,9 C 74 % 1014,1 hPa 0,0 l/m 9,7 km/h (2 Bft) W 270 10 min 0,000 mm 380 W/m 16,8 C 20,5 C 22,5 km/h (4 Bft) 100 %
30.06.2016 12:40 21,6 C 21,6 C 21,7 C 73 % 1014,1 hPa 0,0 l/m 8,0 km/h (2 Bft) SW 225 10 min 0,000 mm 309 W/m 16,5 C 21,0 C 16,1 km/h (3 Bft) 100 %
30.06.2016 12:50 21,4 C 21,4 C 21,6 C 73 % 1014,2 hPa 0,0 l/m 8,0 km/h (2 Bft) SW 225 10 min 0,000 mm 418 W/m 16,4 C 20,8 C 20,9 km/h (4 Bft) 100 %
30.06.2016 13:00 21,7 C 21,4 C 21,7 C 71 % 1014,1 hPa 0,0 l/m 9,7 km/h (2 Bft) S-SW 202 10 min 0,254 mm 415 W/m 16,2 C 20,6 C 17,7 km/h (3 Bft) 100 %
30.06.2016 13:10 21,6 C 21,6 C 21,7 C 70 % 1014,1 hPa 0,0 l/m 8,0 km/h (2 Bft) SW 225 10 min 0,000 mm 353 W/m 15,9 C 21,0 C 22,5 km/h (4 Bft) 100 %
30.06.2016 13:20 21,8 C 21,6 C 21,8 C 72 % 1014,0 hPa 0,0 l/m 9,7 km/h (2 Bft) SW 225 10 min 0,000 mm 891 W/m 16,5 C 20,7 C 24,1 km/h (4 Bft) 100 %
30.06.2016 13:30 22,1 C 21,9 C 22,1 C 72 % 1013,9 hPa 0,0 l/m 8,0 km/h (2 Bft) W-SW 247 10 min 0,000 mm 457 W/m 16,8 C 21,6 C 22,5 km/h (4 Bft) 100 %
30.06.2016 13:40 22,6 C 22,1 C 22,6 C 71 % 1014,0 hPa 0,0 l/m 6,4 km/h (2 Bft) S-SW 202 10 min 0,000 mm 714 W/m 17,1 C 22,6 C 24,1 km/h (4 Bft) 100 %
30.06.2016 13:50 22,6 C 22,4 C 22,6 C 71 % 1013,8 hPa 0,0 l/m 8,0 km/h (2 Bft) SW 225 10 min 0,000 mm 448 W/m 17,1 C 22,1 C 16,1 km/h (3 Bft) 100 %
30.06.2016 14:00 23,1 C 22,6 C 23,1 C 68 % 1013,8 hPa 0,0 l/m 8,0 km/h (2 Bft) W-SW 247 10 min 0,381 mm 1215 W/m 16,9 C 22,6 C 24,1 km/h (4 Bft) 100 %
30.06.2016 14:10 23,4 C 23,1 C 23,4 C 65 % 1013,7 hPa 0,0 l/m 9,7 km/h (2 Bft) W-SW 247 10 min 0,000 mm 1056 W/m 16,4 C 22,5 C 22,5 km/h (4 Bft) 100 %
30.06.2016 14:20 23,5 C 23,4 C 23,6 C 63 % 1013,7 hPa 0,0 l/m 9,7 km/h (2 Bft) W-SW 247 10 min 0,000 mm 1030 W/m 16,0 C 22,6 C 25,7 km/h (4 Bft) 100 %
30.06.2016 14:30 23,0 C 23,0 C 23,5 C 67 % 1013,7 hPa 0,0 l/m 8,0 km/h (2 Bft) S-SW 202 10 min 0,000 mm 373 W/m 16,5 C 22,5 C 25,7 km/h (4 Bft) 100 %
30.06.2016 14:40 22,7 C 22,7 C 23,0 C 67 % 1013,7 hPa 0,0 l/m 8,0 km/h (2 Bft) S-SW 202 10 min 0,000 mm 301 W/m 16,2 C 22,2 C 19,3 km/h (3 Bft) 100 %
30.06.2016 14:50 22,4 C 22,4 C 22,7 C 68 % 1013,7 hPa 0,0 l/m 8,0 km/h (2 Bft) SW 225 10 min 0,000 mm 283 W/m 16,2 C 21,9 C 22,5 km/h (4 Bft) 100 %
30.06.2016 15:00 22,3 C 22,2 C 22,4 C 68 % 1013,7 hPa 0,0 l/m 6,4 km/h (2 Bft) SW 225 10 min 0,305 mm 258 W/m 16,1 C 22,3 C 16,1 km/h (3 Bft) 100 %
30.06.2016 15:10 22,1 C 22,1 C 22,2 C 68 % 1013,6 hPa 0,0 l/m 4,8 km/h (1 Bft) W 270 10 min 0,000 mm 209 W/m 15,9 C 22,1 C 16,1 km/h (3 Bft) 100 %
30.06.2016 15:20 22,1 C 22,1 C 22,1 C 68 % 1013,6 hPa 0,0 l/m 4,8 km/h (1 Bft) W-SW 247 10 min 0,000 mm 278 W/m 15,9 C 22,1 C 19,3 km/h (3 Bft) 100 %
30.06.2016 15:30 22,0 C 22,0 C 22,1 C 68 % 1013,7 hPa 0,0 l/m 6,4 km/h (2 Bft) W 270 10 min 0,000 mm 188 W/m 15,8 C 22,0 C 16,1 km/h (3 Bft) 100 %
30.06.2016 15:40 21,9 C 21,9 C 22,0 C 68 % 1014,0 hPa 0,0 l/m 3,2 km/h (1 Bft) W 270 10 min 0,000 mm 239 W/m 15,7 C 21,9 C 14,5 km/h (3 Bft) 100 %
30.06.2016 15:50 21,9 C 21,9 C 22,0 C 69 % 1013,8 hPa 0,0 l/m 3,2 km/h (1 Bft) W-NW 292 10 min 0,000 mm 216 W/m 15,9 C 21,9 C 16,1 km/h (3 Bft) 100 %
30.06.2016 16:00 22,1 C 21,9 C 22,1 C 69 % 1013,7 hPa 0,0 l/m 3,2 km/h (1 Bft) W-SW 247 10 min 0,152 mm 362 W/m 16,1 C 22,1 C 14,5 km/h (3 Bft) 100 %
30.06.2016 16:10 22,7 C 22,1 C 22,7 C 72 % 1013,6 hPa 0,0 l/m 1,6 km/h (1 Bft) SW 225 10 min 0,000 mm 854 W/m 17,4 C 22,7 C 11,3 km/h (2 Bft) 100 %
30.06.2016 16:20 23,3 C 22,7 C 23,3 C 70 % 1013,5 hPa 0,0 l/m 3,2 km/h (1 Bft) W-NW 292 10 min 0,000 mm 777 W/m 17,5 C 23,3 C 16,1 km/h (3 Bft) 100 %
30.06.2016 16:30 23,6 C 23,3 C 23,6 C 69 % 1013,5 hPa 0,0 l/m 3,2 km/h (1 Bft) W-NW 292 10 min 0,000 mm 504 W/m 17,6 C 23,6 C 17,7 km/h (3 Bft) 100 %
30.06.2016 16:40 24,0 C 23,6 C 24,0 C 66 % 1013,4 hPa 0,0 l/m 6,4 km/h (2 Bft) W-NW 292 10 min 0,000 mm 341 W/m 17,2 C 24,0 C 22,5 km/h (4 Bft) 100 %
30.06.2016 16:50 24,1 C 24,0 C 24,1 C 65 % 1013,4 hPa 0,0 l/m 8,0 km/h (2 Bft) W-NW 292 10 min 0,000 mm 163 W/m 17,1 C 23,7 C 20,9 km/h (4 Bft) 100 %
30.06.2016 17:00 23,9 C 23,9 C 24,1 C 65 % 1013,3 hPa 0,0 l/m 6,4 km/h (2 Bft) W 270 10 min 0,229 mm 192 W/m 16,9 C 23,9 C 16,1 km/h (3 Bft) 100 %
30.06.2016 17:10 23,3 C 23,3 C 23,9 C 65 % 1013,4 hPa 0,0 l/m 4,8 km/h (1 Bft) W 270 10 min 0,000 mm 214 W/m 16,3 C 23,3 C 20,9 km/h (4 Bft) 100 %
30.06.2016 17:20 23,2 C 23,2 C 23,3 C 67 % 1013,4 hPa 0,0 l/m 3,2 km/h (1 Bft) W 270 10 min 0,000 mm 274 W/m 16,7 C 23,2 C 11,3 km/h (2 Bft) 100 %
30.06.2016 17:30 23,6 C 23,2 C 23,6 C 66 % 1013,4 hPa 0,0 l/m 4,8 km/h (1 Bft) W 270 10 min 0,000 mm 206 W/m 16,9 C 23,6 C 20,9 km/h (4 Bft) 100 %
30.06.2016 17:40 23,8 C 23,6 C 23,8 C 63 % 1013,4 hPa 0,0 l/m 6,4 km/h (2 Bft) W 270 10 min 0,000 mm 163 W/m 16,3 C 23,8 C 17,7 km/h (3 Bft) 100 %
30.06.2016 17:50 23,8 C 23,8 C 23,9 C 63 % 1013,3 hPa 0,0 l/m 4,8 km/h (1 Bft) W 270 0 min 0,000 mm 139 W/m 16,3 C 23,8 C 17,7 km/h (3 Bft) 100 %
30.06.2016 18:00 23,8 C 23,8 C 23,9 C 65 % 1013,3 hPa 0,0 l/m 4,8 km/h (1 Bft) W-SW 247 10 min 0,127 mm 229 W/m 16,8 C 23,8 C 17,7 km/h (3 Bft) 100 %
30.06.2016 18:10 24,1 C 23,8 C 24,1 C 64 % 1013,4 hPa 0,0 l/m 4,8 km/h (1 Bft) W-NW 292 10 min 0,000 mm 232 W/m 16,9 C 24,1 C 19,3 km/h (3 Bft) 100 %
30.06.2016 18:20 23,5 C 23,5 C 24,1 C 64 % 1013,2 hPa 0,0 l/m 4,8 km/h (1 Bft) W-NW 292 0 min 0,000 mm 120 W/m 16,3 C 23,5 C 19,3 km/h (3 Bft) 100 %
30.06.2016 18:30 23,0 C 23,0 C 23,5 C 66 % 1013,3 hPa 0,0 l/m 1,6 km/h (1 Bft) W-NW 292 0 min 0,000 mm 146 W/m 16,3 C 23,0 C 9,7 km/h (2 Bft) 100 %
30.06.2016 18:40 23,0 C 22,9 C 23,0 C 65 % 1013,3 hPa 0,0 l/m 3,2 km/h (1 Bft) W-NW 292 10 min 0,000 mm 237 W/m 16,1 C 23,0 C 17,7 km/h (3 Bft) 100 %
30.06.2016 18:50 23,2 C 23,0 C 23,2 C 64 % 1013,3 hPa 0,0 l/m 1,6 km/h (1 Bft) W 270 10 min 0,000 mm 199 W/m 16,0 C 23,2 C 9,7 km/h (2 Bft) 100 %
30.06.2016 19:10 22,9 C 22,9 C 23,2 C 63 % 1013,4 hPa 0,0 l/m 2,5 km/h (1 Bft) W-SW 252 0 min 0,101 mm 67 W/m 15,5 C 22,9 C 11,3 km/h (2 Bft) 97 %
30.06.2016 19:20 22,5 C 22,5 C 22,9 C 64 % 1013,5 hPa 0,0 l/m 1,3 km/h (1 Bft) W-NW 288 10 min 0,000 mm 179 W/m 15,3 C 22,5 C 9,7 km/h (2 Bft) 98 %
30.06.2016 19:30 22,5 C 22,4 C 22,5 C 63 % 1013,5 hPa 0,0 l/m 2,7 km/h (1 Bft) W-SW 257 10 min 0,000 mm 299 W/m 15,1 C 22,5 C 11,3 km/h (2 Bft) 97 %
30.06.2016 19:40 22,7 C 22,5 C 22,7 C 64 % 1013,7 hPa 0,0 l/m 1,6 km/h (1 Bft) W 273 10 min 0,000 mm 248 W/m 15,5 C 22,7 C 9,7 km/h (2 Bft) 97 %
30.06.2016 19:50 22,7 C 22,7 C 22,7 C 65 % 1013,9 hPa 0,0 l/m 2,8 km/h (1 Bft) W-NW 290 0 min 0,000 mm 69 W/m 15,8 C 22,7 C 11,3 km/h (2 Bft) 97 %
30.06.2016 20:00 22,4 C 22,4 C 22,7 C 64 % 1013,9 hPa 0,0 l/m 4,1 km/h (1 Bft) W-NW 296 0 min 0,102 mm 42 W/m 15,2 C 22,4 C 12,9 km/h (3 Bft) 98 %
30.06.2016 20:10 22,3 C 22,3 C 22,4 C 65 % 1013,9 hPa 0,0 l/m 0,4 km/h (0 Bft) NW 305 0 min 0,000 mm 32 W/m 15,4 C 22,3 C 4,8 km/h (1 Bft) 98 %
30.06.2016 20:20 22,0 C 22,0 C 22,3 C 65 % 1014,0 hPa 0,0 l/m 1,6 km/h (1 Bft) W-NW 284 0 min 0,000 mm 26 W/m 15,1 C 22,0 C 8,0 km/h (2 Bft) 97 %
30.06.2016 20:30 21,9 C 21,9 C 22,0 C 66 % 1014,0 hPa 0,0 l/m 0,0 km/h (0 Bft) W-NW 292 0 min 0,000 mm 35 W/m 15,3 C 21,9 C 0,0 km/h (0 Bft) 98 %
30.06.2016 20:40 21,8 C 21,8 C 21,9 C 67 % 1014,0 hPa 0,0 l/m 0,0 km/h (0 Bft) W-NW 292 0 min 0,000 mm 21 W/m 15,4 C 21,8 C 1,6 km/h (1 Bft) 98 %
30.06.2016 20:50 21,7 C 21,7 C 21,8 C 68 % 1014,0 hPa 0,0 l/m 0,0 km/h (0 Bft) W-NW 292 0 min 0,000 mm 11 W/m 15,5 C 21,7 C 0,0 km/h (0 Bft) 98 %
30.06.2016 21:00 21,4 C 21,4 C 21,7 C 72 % 1014,2 hPa 0,0 l/m 0,0 km/h (0 Bft) W-NW 292 0 min 0,025 mm 0 W/m 16,1 C 21,4 C 1,6 km/h (1 Bft) 97 %
30.06.2016 21:10 21,1 C 21,1 C 21,4 C 72 % 1014,3 hPa 0,0 l/m 0,0 km/h (0 Bft) N 0 0 min 0,000 mm 12 W/m 15,8 C 21,1 C 0,0 km/h (0 Bft) 100 %
30.06.2016 21:20 20,8 C 20,8 C 21,1 C 75 % 1014,2 hPa 0,0 l/m 0,0 km/h (0 Bft) N 0 0 min 0,000 mm 12 W/m 16,2 C 20,8 C 0,0 km/h (0 Bft) 100 %
30.06.2016 21:30 20,3 C 20,3 C 20,7 C 75 % 1014,2 hPa 0,0 l/m 0,0 km/h (0 Bft) N 0 0 min 0,000 mm 5 W/m 15,7 C 20,3 C 0,0 km/h (0 Bft) 100 %
30.06.2016 21:40 20,0 C 20,0 C 20,3 C 78 % 1014,4 hPa 0,0 l/m 0,0 km/h (0 Bft) N 0 0 min 0,000 mm 0 W/m 16,0 C 20,0 C 0,0 km/h (0 Bft) 100 %
30.06.2016 21:50 19,7 C 19,7 C 20,1 C 78 % 1014,5 hPa 0,0 l/m 0,0 km/h (0 Bft) N 0 0 min 0,000 mm 0 W/m 15,8 C 19,7 C 0,0 km/h (0 Bft) 100 %
30.06.2016 22:00 19,4 C 19,4 C 19,7 C 78 % 1014,6 hPa 0,0 l/m 0,0 km/h (0 Bft) N 0 0 min 0,000 mm 0 W/m 15,5 C 19,4 C 0,0 km/h (0 Bft) 100 %
30.06.2016 22:10 19,2 C 19,2 C 19,4 C 80 % 1014,9 hPa 0,0 l/m 0,0 km/h (0 Bft) N 0 0 min 0,000 mm 0 W/m 15,7 C 19,2 C 0,0 km/h (0 Bft) 100 %
30.06.2016 22:20 19,0 C 19,0 C 19,2 C 81 % 1014,9 hPa 0,0 l/m 0,0 km/h (0 Bft) N 0 0 min 0,000 mm 0 W/m 15,7 C 19,0 C 0,0 km/h (0 Bft) 99 %
30.06.2016 22:30 18,8 C 18,8 C 19,0 C 80 % 1014,9 hPa 0,0 l/m 0,0 km/h (0 Bft) W-NW 292 0 min 0,000 mm 0 W/m 15,3 C 18,8 C 4,8 km/h (1 Bft) 100 %
30.06.2016 22:40 18,6 C 18,6 C 18,8 C 80 % 1014,9 hPa 0,0 l/m 3,2 km/h (1 Bft) S-SW 202 0 min 0,000 mm 0 W/m 15,1 C 18,6 C 6,4 km/h (2 Bft) 100 %
30.06.2016 22:50 18,6 C 18,6 C 18,6 C 80 % 1014,9 hPa 0,0 l/m 3,2 km/h (1 Bft) S-SW 202 0 min 0,000 mm 0 W/m 15,1 C 18,6 C 4,8 km/h (1 Bft) 100 %
30.06.2016 23:00 18,6 C 18,6 C 18,6 C 82 % 1015,0 hPa 0,0 l/m 1,6 km/h (1 Bft) S 180 0 min 0,025 mm 0 W/m 15,5 C 18,6 C 6,4 km/h (2 Bft) 100 %
30.06.2016 23:10 18,4 C 18,4 C 18,6 C 84 % 1015,1 hPa 0,0 l/m 1,6 km/h (1 Bft) S-SO 157 0 min 0,000 mm 0 W/m 15,6 C 18,4 C 6,4 km/h (2 Bft) 100 %
30.06.2016 23:20 18,2 C 18,2 C 18,4 C 85 % 1015,1 hPa 0,0 l/m 1,6 km/h (1 Bft) S-SO 157 0 min 0,000 mm 0 W/m 15,6 C 18,2 C 6,4 km/h (2 Bft) 100 %
30.06.2016 23:30 17,8 C 17,8 C 18,2 C 87 % 1015,3 hPa 0,0 l/m 0,0 km/h (0 Bft) S-SO 157 0 min 0,000 mm 0 W/m 15,6 C 17,8 C 4,8 km/h (1 Bft) 100 %
30.06.2016 23:40 17,6 C 17,6 C 17,8 C 88 % 1015,3 hPa 0,0 l/m 1,6 km/h (1 Bft) S-SO 157 0 min 0,000 mm 0 W/m 15,6 C 17,6 C 4,8 km/h (1 Bft) 100 %
30.06.2016 23:50 17,3 C 17,3 C 17,6 C 88 % 1015,3 hPa 0,0 l/m 0,0 km/h (0 Bft) S-SO 157 0 min 0,000 mm 0 W/m 15,3 C 17,3 C 1,6 km/h (1 Bft) 100 %
_ Min-Zeit 03:40 03:40 03:50 14:20 03:20 - 00:00 - - - - - 03:40 03:40 00:00 09:10
Minimum _ 13,6 C 13,6 C 13,7 C 63 % 1011,5 hPa - 0,0 km/h (0 Bft) - - - - - 12,0 C 13,6 C 0,0 km/h (0 Bft) 90 %
_ Max-Zeit 16:50 16:50 16:50 04:40 23:30 00:00 12:10 - - 09:00 12:00 14:00 16:30 18:10 12:10 00:00
Maximum _ 24,1 C 24,0 C 24,1 C 91 % 1015,3 hPa 0,0 l/m 11,3 km/h
S-SW (2 Bft)
- - 10 min 0,381 mm 1215 W/m 17,6 C 24,1 C 25,7 km/h
S-SW (4 Bft)
100 %
Durchschnitt _ 18,9 C 18,8 C 19,0 C 80 % 1013,4 hPa #0,0 l/m 2,9 km/h (1 Bft) S-SW - #9:40 h #2,514 mm 306 W/m 15,1 C 18,8 C 9,0 km/h (2 Bft) 100 %
PRIVATE WETTERSTATION BILLIGHEIM-ALLFELD - www.neckar-odenwald-wetter.de - Holger Sonntag